Time;durP1;ratioP1;P1;durP2;ratioP2;P2;SDS_P1;SDS_P2;PMS_P1;PMS_P2;Temp;Humidity;BMP_temperature;BMP_pressure;BME280_temperature;BME280_humidity;BME280_pressure;Samples;Min_cycle;Max_cycle;Signal;HPM_P1;HPM_P2
2022/01/28 00:01:06;;;;;;;9.83;2.57;;;6.30;99.90;;;;;;5004533;28;20209;-78
2022/01/28 00:03:38;;;;;;;11.53;2.33;;;6.30;99.90;;;;;;5006410;28;20213;-78
2022/01/28 00:06:07;;;;;;;10.33;2.00;;;6.40;99.90;;;;;;5002552;28;20207;-78
2022/01/28 00:08:35;;;;;;;8.17;1.93;;;6.30;99.90;;;;;;5014290;28;20229;-78
2022/01/28 00:11:02;;;;;;;9.03;1.77;;;6.30;99.90;;;;;;5005176;28;20207;-78
2022/01/28 00:13:56;;;;;;;8.43;3.00;;;6.20;99.90;;;;;;5013834;28;20198;-78
2022/01/28 00:19:50;;;;;;;7.23;1.80;;;6.20;99.90;;;;;;4975736;28;20242;-78
2022/01/28 00:38:44;;;;;;;10.20;2.20;;;6.20;99.90;;;;;;5021399;28;20730;-78
2022/01/28 00:41:12;;;;;;;6.33;2.10;;;6.10;99.90;;;;;;5013713;28;20376;-78
2022/01/28 00:43:40;;;;;;;5.63;2.47;;;6.10;99.90;;;;;;5006863;28;20217;-78
2022/01/28 00:46:08;;;;;;;9.20;2.57;;;6.10;99.90;;;;;;5005445;28;20209;-78
2022/01/28 00:48:37;;;;;;;9.50;2.77;;;6.10;99.90;;;;;;5012901;28;20228;-78
2022/01/28 00:51:06;;;;;;;10.97;2.67;;;6.10;99.90;;;;;;5015162;28;20209;-78
2022/01/28 00:53:33;;;;;;;7.13;2.30;;;6.00;99.90;;;;;;5013749;28;20711;-78
2022/01/28 00:56:00;;;;;;;11.37;2.20;;;6.00;99.90;;;;;;5013416;28;20205;-78
2022/01/28 00:58:28;;;;;;;13.13;2.60;;;6.00;99.90;;;;;;5016541;28;20238;-78
2022/01/28 01:00:55;;;;;;;8.60;2.63;;;6.00;99.90;;;;;;5017768;28;20209;-78
2022/01/28 01:03:23;;;;;;;9.90;2.90;;;6.00;99.90;;;;;;5012181;28;20198;-78
2022/01/28 01:05:50;;;;;;;12.47;2.90;;;5.90;99.90;;;;;;5014799;28;20189;-78
2022/01/28 01:08:19;;;;;;;13.03;2.90;;;5.90;99.90;;;;;;5015946;28;20222;-78
2022/01/28 01:10:46;;;;;;;14.90;2.97;;;5.90;99.90;;;;;;5006886;28;20200;-79
2022/01/28 01:13:14;;;;;;;9.93;2.50;;;5.90;99.90;;;;;;5013006;28;20222;-78
2022/01/28 01:15:45;;;;;;;7.60;2.90;;;5.90;99.90;;;;;;5010266;28;20194;-78
2022/01/28 01:18:19;;;;;;;9.40;3.03;;;5.90;99.90;;;;;;5012637;28;20213;-78
2022/01/28 01:21:00;;;;;;;7.73;1.83;;;5.90;99.90;;;;;;5007872;28;20193;-78
2022/01/28 01:23:31;;;;;;;6.53;2.07;;;5.90;99.90;;;;;;5012642;28;20206;-78
2022/01/28 01:26:07;;;;;;;8.20;2.50;;;5.90;99.90;;;;;;5012964;28;20200;-78
2022/01/28 01:28:38;;;;;;;11.23;2.50;;;5.90;99.90;;;;;;5017252;28;20593;-78
2022/01/28 01:31:08;;;;;;;9.93;2.33;;;5.90;99.90;;;;;;5008577;28;20205;-78
2022/01/28 01:33:40;;;;;;;9.57;2.50;;;5.90;99.90;;;;;;5013448;28;20214;-76
2022/01/28 01:36:08;;;;;;;12.53;3.63;;;5.90;99.90;;;;;;5009323;28;20210;-79
2022/01/28 01:38:45;;;;;;;11.73;3.00;;;5.90;99.90;;;;;;5005817;28;20232;-76
2022/01/28 01:41:17;;;;;;;12.53;3.43;;;5.90;99.90;;;;;;5004236;28;20554;-80
2022/01/28 01:43:55;;;;;;;14.53;2.87;;;5.90;99.90;;;;;;5012621;28;20209;-79
2022/01/28 01:46:32;;;;;;;12.90;2.77;;;5.90;99.90;;;;;;5010369;28;20204;-80
2022/01/28 01:54:37;;;;;;;12.07;3.10;;;5.90;99.90;;;;;;5001431;28;20574;-79
2022/01/28 01:57:06;;;;;;;11.77;3.33;;;5.90;99.90;;;;;;5023971;28;20284;-77
2022/01/28 01:59:33;;;;;;;10.40;2.73;;;5.80;99.90;;;;;;5011051;28;20408;-79
2022/01/28 02:02:01;;;;;;;11.33;2.70;;;5.80;99.90;;;;;;5006566;28;20209;-79
2022/01/28 02:04:28;;;;;;;8.90;2.57;;;5.80;99.90;;;;;;5012183;28;20567;-79
2022/01/28 02:06:57;;;;;;;9.60;3.13;;;5.80;99.90;;;;;;5010538;28;20680;-79
2022/01/28 02:09:24;;;;;;;11.30;2.73;;;5.80;99.90;;;;;;5007199;28;20227;-79
2022/01/28 02:11:53;;;;;;;12.00;3.57;;;5.80;99.90;;;;;;5007995;28;20206;-79
2022/01/28 02:14:21;;;;;;;8.30;2.57;;;5.80;99.90;;;;;;5012091;28;20204;-79
2022/01/28 02:16:48;;;;;;;10.90;2.97;;;5.80;99.90;;;;;;5006807;28;20201;-79
2022/01/28 02:19:16;;;;;;;12.77;2.93;;;5.80;99.90;;;;;;5008017;28;20229;-79
2022/01/28 02:21:47;;;;;;;7.63;2.50;;;5.80;99.90;;;;;;5004318;28;20201;-79
2022/01/28 02:24:18;;;;;;;14.30;3.50;;;5.80;99.90;;;;;;5012542;28;20201;-79
2022/01/28 02:26:45;;;;;;;10.67;2.67;;;5.80;99.90;;;;;;5015341;28;20190;-79
2022/01/28 02:29:27;;;;;;;7.97;2.30;;;5.80;99.90;;;;;;5010447;28;20564;-79
2022/01/28 02:31:55;;;;;;;10.57;2.60;;;5.80;99.90;;;;;;5001228;28;20229;-79
2022/01/28 02:34:22;;;;;;;12.87;2.93;;;5.80;99.90;;;;;;5007937;28;20242;-79
2022/01/28 02:36:51;;;;;;;14.20;2.50;;;5.80;99.90;;;;;;5007320;28;20213;-79
2022/01/28 02:39:19;;;;;;;11.40;3.40;;;5.80;99.90;;;;;;5012321;28;20244;-79
2022/01/28 02:41:49;;;;;;;10.20;2.93;;;5.90;99.90;;;;;;5013165;28;20199;-79
2022/01/28 02:44:21;;;;;;;10.83;2.27;;;5.90;99.90;;;;;;5013691;28;20207;-79
2022/01/28 02:47:33;;;;;;;10.03;2.83;;;5.80;99.90;;;;;;5012488;28;20199;-79
2022/01/28 02:50:03;;;;;;;11.10;2.60;;;5.80;99.90;;;;;;5021721;28;20233;-79
2022/01/28 02:52:37;;;;;;;12.20;3.13;;;5.70;99.90;;;;;;5032423;28;20209;-79
2022/01/28 02:55:10;;;;;;;14.83;2.73;;;5.70;99.90;;;;;;5011402;28;20201;-79
2022/01/28 02:57:40;;;;;;;9.37;3.00;;;5.80;99.90;;;;;;5006627;28;20201;-79
2022/01/28 03:00:08;;;;;;;7.03;2.70;;;5.80;99.90;;;;;;5005709;28;20223;-78
2022/01/28 03:02:47;;;;;;;9.43;2.90;;;5.70;99.90;;;;;;5030511;28;20214;-79
2022/01/28 03:05:30;;;;;;;10.60;2.97;;;5.80;99.90;;;;;;5025852;28;20208;-79
2022/01/28 03:08:01;;;;;;;17.73;3.03;;;5.80;99.90;;;;;;5014490;28;20207;-79
2022/01/28 03:10:40;;;;;;;9.90;3.10;;;5.80;99.90;;;;;;5008425;28;20207;-79
2022/01/28 03:15:54;;;;;;;14.20;3.43;;;5.70;99.90;;;;;;5003543;28;20190;-79
2022/01/28 03:18:30;;;;;;;10.30;2.57;;;5.80;99.90;;;;;;5014536;28;20223;-79
2022/01/28 03:21:07;;;;;;;8.90;2.50;;;5.80;99.90;;;;;;4999611;28;20209;-79
2022/01/28 03:23:38;;;;;;;7.57;2.27;;;5.80;99.90;;;;;;5008008;28;20205;-78
2022/01/28 03:26:05;;;;;;;14.27;2.77;;;5.80;99.90;;;;;;5010438;28;20204;-78
2022/01/28 03:28:32;;;;;;;8.37;3.00;;;5.70;99.90;;;;;;5015108;28;20207;-78
2022/01/28 03:31:00;;;;;;;10.73;3.07;;;5.70;99.90;;;;;;5005559;28;20203;-78
2022/01/28 03:33:27;;;;;;;11.17;2.43;;;5.70;99.90;;;;;;5012566;28;20586;-78
2022/01/28 03:35:54;;;;;;;11.07;2.77;;;5.70;99.90;;;;;;5013446;28;20212;-78
2022/01/28 03:38:22;;;;;;;11.53;3.13;;;5.70;99.90;;;;;;5013018;28;20237;-78
2022/01/28 03:40:53;;;;;;;8.67;2.53;;;5.70;99.90;;;;;;5007190;28;20212;-78
2022/01/28 03:43:21;;;;;;;15.00;2.47;;;5.70;99.90;;;;;;5011525;28;20193;-78
2022/01/28 03:45:48;;;;;;;9.00;2.47;;;5.70;99.90;;;;;;5013467;28;20210;-78
2022/01/28 03:48:16;;;;;;;11.03;2.50;;;5.60;99.90;;;;;;5026163;28;20218;-78
2022/01/28 03:50:43;;;;;;;14.03;3.07;;;5.60;99.90;;;;;;5007935;28;20563;-78
2022/01/28 03:53:11;;;;;;;16.10;3.00;;;5.70;99.90;;;;;;5022670;28;20218;-78
2022/01/28 03:55:38;;;;;;;12.77;2.93;;;5.60;99.90;;;;;;5014251;28;20209;-78
2022/01/28 03:58:07;;;;;;;9.10;2.83;;;5.60;99.90;;;;;;5012578;28;20207;-78
2022/01/28 04:00:35;;;;;;;14.77;3.23;;;5.50;99.90;;;;;;5006570;28;20210;-78
2022/01/28 04:03:09;;;;;;;14.10;4.87;;;5.50;99.90;;;;;;5018880;28;20220;-78
2022/01/28 04:14:09;;;;;;;10.03;3.13;;;5.50;99.90;;;;;;4964467;28;20236;-78
2022/01/28 04:19:19;;;;;;;11.67;2.97;;;5.60;99.90;;;;;;5006595;28;20224;-78
2022/01/28 04:22:04;;;;;;;8.47;2.87;;;5.50;99.90;;;;;;5008143;28;20202;-78
2022/01/28 04:24:31;;;;;;;8.50;3.10;;;5.60;99.90;;;;;;5011247;28;20209;-78
2022/01/28 04:26:59;;;;;;;15.47;3.73;;;5.70;99.90;;;;;;5010427;28;20216;-78
2022/01/28 04:29:28;;;;;;;11.83;3.80;;;5.60;99.90;;;;;;5004562;28;20223;-78
2022/01/28 04:31:55;;;;;;;11.90;3.63;;;5.50;99.90;;;;;;5012223;28;20212;-78
2022/01/28 04:34:23;;;;;;;16.20;3.60;;;5.40;99.90;;;;;;5009676;28;20218;-78
2022/01/28 04:37:00;;;;;;;12.83;3.77;;;5.40;99.90;;;;;;5007758;28;20208;-78
2022/01/28 04:39:34;;;;;;;8.30;3.60;;;5.30;99.90;;;;;;5009568;28;20631;-78
2022/01/28 04:42:11;;;;;;;12.13;3.20;;;5.30;99.90;;;;;;5009576;28;20205;-78
2022/01/28 04:44:51;;;;;;;12.13;3.40;;;5.40;99.90;;;;;;5027307;28;20201;-78
2022/01/28 04:47:25;;;;;;;13.70;3.43;;;5.40;99.90;;;;;;5012796;28;20201;-78
2022/01/28 04:50:01;;;;;;;16.43;3.33;;;5.20;99.90;;;;;;5002929;28;20234;-78
2022/01/28 04:53:19;;;;;;;13.83;2.93;;;5.20;99.90;;;;;;5007897;28;20223;-78
2022/01/28 04:56:03;;;;;;;12.27;3.60;;;5.10;99.90;;;;;;5011736;28;20200;-78
2022/01/28 04:58:44;;;;;;;12.67;3.30;;;5.10;99.90;;;;;;5013742;28;21308;-78
2022/01/28 05:01:31;;;;;;;13.07;3.47;;;5.10;99.90;;;;;;5002902;28;20254;-78
2022/01/28 05:04:11;;;;;;;17.03;3.30;;;5.10;99.90;;;;;;5013341;28;20198;-78
2022/01/28 05:07:18;;;;;;;9.77;2.97;;;5.00;99.90;;;;;;5008053;28;20212;-78
2022/01/28 05:13:04;;;;;;;13.90;3.53;;;5.30;99.90;;;;;;5011148;28;20203;-78
2022/01/28 05:15:56;;;;;;;13.13;3.67;;;5.10;99.90;;;;;;5012448;28;20202;-78
2022/01/28 05:24:14;;;;;;;8.83;2.83;;;5.50;99.90;;;;;;4977869;28;20203;-78
2022/01/28 05:26:53;;;;;;;10.30;2.60;;;5.30;99.90;;;;;;5015430;28;20201;-78
2022/01/28 05:29:20;;;;;;;9.23;3.20;;;5.40;99.90;;;;;;5010814;28;20229;-78
2022/01/28 05:31:55;;;;;;;9.77;2.70;;;5.40;99.90;;;;;;5005032;28;20205;-78
2022/01/28 05:34:26;;;;;;;10.30;3.20;;;5.40;99.90;;;;;;5011777;28;20208;-78
2022/01/28 05:36:53;;;;;;;11.70;3.00;;;5.40;99.90;;;;;;5012370;28;20203;-78
2022/01/28 05:39:21;;;;;;;14.47;3.67;;;5.40;99.90;;;;;;5007368;28;20220;-78
2022/01/28 05:41:48;;;;;;;10.23;3.00;;;5.30;99.90;;;;;;5010826;28;20212;-78
2022/01/28 05:44:18;;;;;;;10.23;2.70;;;5.40;99.90;;;;;;5012292;28;20228;-78
2022/01/28 05:46:46;;;;;;;10.40;2.67;;;5.40;99.90;;;;;;5018606;28;20216;-78
2022/01/28 05:49:14;;;;;;;11.90;3.43;;;5.40;99.90;;;;;;5008528;28;20246;-78
2022/01/28 05:51:43;;;;;;;8.00;2.23;;;5.30;99.90;;;;;;5002230;28;20686;-78
2022/01/28 05:54:10;;;;;;;12.13;3.07;;;5.30;99.90;;;;;;5010463;28;20220;-78
2022/01/28 05:56:38;;;;;;;13.40;3.30;;;5.30;99.90;;;;;;5021013;28;20196;-78
2022/01/28 05:59:05;;;;;;;11.40;3.03;;;5.40;99.90;;;;;;5002947;28;20233;-78
2022/01/28 06:01:33;;;;;;;8.73;3.03;;;5.40;99.90;;;;;;5011248;28;20204;-78
2022/01/28 06:04:00;;;;;;;8.80;2.10;;;5.60;99.90;;;;;;5008958;28;20199;-77
2022/01/28 06:06:28;;;;;;;7.27;2.47;;;7.30;99.90;;;;;;5013249;28;20573;-77
2022/01/28 06:08:57;;;;;;;6.43;2.57;;;7.90;99.90;;;;;;5008354;28;20316;-76
2022/01/28 06:11:25;;;;;;;12.63;2.80;;;8.50;99.90;;;;;;5014752;28;20202;-78
2022/01/28 06:13:53;;;;;;;17.30;2.83;;;8.30;99.90;;;;;;5013774;28;20211;-78
2022/01/28 06:16:26;;;;;;;12.40;3.67;;;7.00;99.90;;;;;;5015967;28;20203;-78
2022/01/28 06:18:53;;;;;;;11.13;3.30;;;6.40;99.90;;;;;;5010339;28;20227;-78
2022/01/28 06:21:21;;;;;;;11.30;3.73;;;6.20;99.90;;;;;;5016334;28;20534;-77
2022/01/28 06:23:51;;;;;;;14.33;4.03;;;6.20;99.90;;;;;;5017700;28;20206;-77
2022/01/28 06:26:20;;;;;;;13.20;4.97;;;6.10;99.90;;;;;;5018463;28;20188;-78
2022/01/28 06:28:47;;;;;;;11.53;3.90;;;5.90;99.90;;;;;;5017905;28;20219;-77
2022/01/28 06:31:21;;;;;;;9.63;4.10;;;5.80;99.90;;;;;;5011035;28;20207;-77
2022/01/28 06:33:48;;;;;;;15.10;3.80;;;5.70;99.90;;;;;;5014066;28;20198;-78
2022/01/28 06:36:15;;;;;;;14.40;4.93;;;5.70;99.90;;;;;;5014901;28;20596;-78
2022/01/28 06:38:43;;;;;;;9.77;3.97;;;5.40;99.90;;;;;;5020239;28;20222;-77
2022/01/28 06:41:11;;;;;;;12.57;4.17;;;5.40;99.90;;;;;;5014085;28;20211;-78
2022/01/28 06:43:41;;;;;;;19.50;3.97;;;5.40;99.90;;;;;;5015249;28;20206;-78
2022/01/28 06:46:11;;;;;;;15.43;4.00;;;5.50;99.90;;;;;;5012143;28;20265;-78
2022/01/28 06:48:50;;;;;;;14.13;3.93;;;5.40;99.90;;;;;;5018930;28;20597;-77
2022/01/28 06:51:35;;;;;;;17.80;3.90;;;5.40;99.90;;;;;;5005834;28;20205;-77
2022/01/28 06:54:02;;;;;;;10.10;3.83;;;5.40;99.90;;;;;;5006627;28;20666;-76
2022/01/28 06:56:30;;;;;;;14.87;4.03;;;5.40;99.90;;;;;;5010572;28;20293;-77
2022/01/28 06:59:00;;;;;;;13.53;3.53;;;5.40;99.90;;;;;;5011099;28;20896;-76
2022/01/28 07:02:14;;;;;;;11.23;3.93;;;5.40;99.90;;;;;;5012693;28;20208;-76
2022/01/28 07:04:42;;;;;;;12.43;3.80;;;5.50;99.90;;;;;;5007688;28;20198;-77
2022/01/28 07:07:11;;;;;;;8.80;3.50;;;5.50;99.90;;;;;;5012456;28;20205;-77
2022/01/28 07:09:39;;;;;;;9.60;3.00;;;5.60;99.90;;;;;;5005908;28;20696;-76
2022/01/28 07:12:07;;;;;;;12.13;4.07;;;5.50;99.90;;;;;;5006389;28;20681;-76
2022/01/28 07:14:36;;;;;;;15.13;4.37;;;5.50;99.90;;;;;;5013487;28;20221;-76
2022/01/28 07:17:12;;;;;;;17.70;4.40;;;5.50;99.90;;;;;;5009797;28;20620;-76
2022/01/28 07:19:39;;;;;;;10.90;3.60;;;5.30;99.90;;;;;;5007398;28;20594;-76
2022/01/28 07:22:16;;;;;;;16.50;5.07;;;5.30;99.90;;;;;;5007221;28;20206;-76
2022/01/28 07:24:44;;;;;;;14.90;4.43;;;5.40;99.90;;;;;;5002910;28;20202;-76
2022/01/28 07:27:11;;;;;;;13.90;5.03;;;5.40;99.90;;;;;;5015188;28;20209;-77
2022/01/28 07:29:53;;;;;;;13.63;4.50;;;5.40;99.90;;;;;;5003370;28;20225;-76
2022/01/28 07:32:22;;;;;;;15.57;5.43;;;5.40;99.90;;;;;;5008664;28;20211;-77
2022/01/28 07:34:50;;;;;;;14.53;3.83;;;5.40;99.90;;;;;;5015715;28;20707;-76
2022/01/28 07:37:17;;;;;;;16.77;4.13;;;5.50;99.90;;;;;;5011276;28;20203;-76
2022/01/28 07:39:45;;;;;;;18.07;4.80;;;5.50;99.90;;;;;;5001149;28;20237;-75
2022/01/28 07:42:12;;;;;;;15.63;4.60;;;5.50;99.90;;;;;;5012992;28;20213;-76
2022/01/28 07:44:42;;;;;;;13.97;4.23;;;5.40;99.90;;;;;;5011399;28;20230;-76
2022/01/28 07:47:11;;;;;;;14.63;4.13;;;5.50;99.90;;;;;;5013701;28;20209;-76
2022/01/28 07:49:38;;;;;;;14.47;4.13;;;5.50;99.90;;;;;;5002676;28;20721;-76
2022/01/28 07:52:06;;;;;;;15.30;4.70;;;5.40;99.90;;;;;;5025560;28;20202;-75
2022/01/28 07:54:57;;;;;;;19.30;4.40;;;5.40;99.90;;;;;;5010472;28;20202;-77
2022/01/28 07:57:42;;;;;;;12.27;4.10;;;5.40;99.90;;;;;;5009544;28;20202;-75
2022/01/28 08:00:12;;;;;;;13.73;4.30;;;5.40;99.90;;;;;;5008576;28;20252;-75
2022/01/28 08:02:42;;;;;;;14.87;3.83;;;5.40;99.90;;;;;;5010169;28;20201;-79
2022/01/28 08:05:10;;;;;;;13.80;4.30;;;5.40;99.90;;;;;;5010086;28;20210;-78
2022/01/28 08:07:38;;;;;;;12.80;4.10;;;5.40;99.90;;;;;;5027642;28;20202;-75
2022/01/28 08:10:06;;;;;;;15.60;4.17;;;5.30;99.90;;;;;;5015197;28;20232;-76
2022/01/28 08:12:33;;;;;;;17.73;4.00;;;5.40;99.90;;;;;;5014579;28;20693;-76
2022/01/28 08:15:00;;;;;;;11.33;4.17;;;5.50;99.90;;;;;;5010846;28;20202;-78
2022/01/28 08:17:35;;;;;;;16.53;4.63;;;5.50;99.90;;;;;;5018798;28;20666;-79
2022/01/28 08:20:04;;;;;;;15.63;4.50;;;5.40;99.90;;;;;;5011472;28;20229;-79
2022/01/28 08:22:31;;;;;;;13.87;4.10;;;5.50;99.90;;;;;;5009528;28;20202;-77
2022/01/28 08:24:59;;;;;;;12.47;3.93;;;5.50;99.90;;;;;;5007902;28;20198;-76
2022/01/28 08:27:31;;;;;;;13.23;4.20;;;5.60;99.90;;;;;;5011684;28;20698;-77
2022/01/28 08:29:59;;;;;;;14.40;5.13;;;5.60;99.90;;;;;;5005628;28;20218;-77
2022/01/28 08:32:27;;;;;;;13.57;4.50;;;5.60;99.90;;;;;;5009551;28;20218;-78
2022/01/28 08:34:54;;;;;;;10.37;4.87;;;5.50;99.90;;;;;;5009310;28;20214;-78
2022/01/28 08:37:23;;;;;;;12.80;4.53;;;5.50;99.90;;;;;;5020266;28;20214;-79
2022/01/28 08:39:51;;;;;;;12.13;4.57;;;5.50;99.90;;;;;;5006639;28;20683;-80
2022/01/28 08:42:19;;;;;;;12.57;3.97;;;5.60;99.90;;;;;;5000693;28;20567;-76
2022/01/28 08:44:46;;;;;;;12.60;3.63;;;5.50;99.90;;;;;;5012271;28;20592;-76
2022/01/28 08:47:13;;;;;;;12.97;3.80;;;5.50;99.90;;;;;;5011942;28;20202;-76
2022/01/28 08:49:41;;;;;;;13.67;4.07;;;5.50;99.90;;;;;;5008147;28;20235;-76
2022/01/28 08:52:09;;;;;;;12.20;4.23;;;5.60;99.90;;;;;;5001257;28;20211;-76
2022/01/28 08:54:38;;;;;;;10.50;3.53;;;5.50;99.90;;;;;;4994346;28;20182;-76
2022/01/28 08:57:06;;;;;;;9.93;3.83;;;5.60;99.90;;;;;;4996751;28;20217;-75
2022/01/28 08:59:33;;;;;;;8.13;3.07;;;5.60;99.90;;;;;;5012051;28;20220;-75
2022/01/28 09:02:00;;;;;;;10.10;3.43;;;5.60;99.90;;;;;;5011536;28;20217;-76
2022/01/28 09:04:28;;;;;;;12.37;3.43;;;5.70;99.90;;;;;;5012418;28;20675;-76
2022/01/28 09:06:55;;;;;;;7.73;3.33;;;5.70;99.90;;;;;;5012585;28;20210;-75
2022/01/28 09:09:22;;;;;;;12.33;3.53;;;5.70;99.90;;;;;;5010051;28;20586;-76
2022/01/28 09:12:05;;;;;;;13.53;3.57;;;5.80;99.90;;;;;;5015183;28;20216;-76
2022/01/28 09:14:32;;;;;;;10.87;3.07;;;5.70;99.90;;;;;;4993519;28;20185;-76
2022/01/28 09:17:00;;;;;;;14.17;3.60;;;5.80;99.90;;;;;;5008562;28;20227;-76
2022/01/28 09:19:27;;;;;;;13.10;3.50;;;5.80;99.90;;;;;;5004338;28;20229;-76
2022/01/28 09:21:55;;;;;;;11.37;3.10;;;5.90;99.90;;;;;;4997158;28;20206;-76
2022/01/28 09:24:22;;;;;;;13.70;3.30;;;5.90;99.90;;;;;;4992471;28;20204;-76
2022/01/28 09:26:53;;;;;;;11.17;3.00;;;5.90;99.90;;;;;;5008806;28;20209;-76
2022/01/28 09:29:21;;;;;;;13.17;3.63;;;5.90;99.90;;;;;;5010520;28;20243;-76
2022/01/28 09:31:49;;;;;;;8.50;3.00;;;6.10;99.90;;;;;;5009077;28;20198;-76
2022/01/28 09:34:16;;;;;;;11.20;3.40;;;6.00;99.90;;;;;;5011655;28;20211;-76
2022/01/28 09:36:44;;;;;;;11.57;3.50;;;6.20;99.90;;;;;;5011645;28;20227;-76
2022/01/28 09:39:13;;;;;;;12.77;3.60;;;6.10;99.90;;;;;;5017213;28;20748;-76
2022/01/28 09:41:40;;;;;;;7.40;2.83;;;6.30;99.90;;;;;;5004238;28;20673;-76
2022/01/28 09:44:12;;;;;;;10.17;3.03;;;6.40;99.90;;;;;;5007513;28;20198;-76
2022/01/28 09:46:39;;;;;;;7.80;2.67;;;6.30;99.90;;;;;;5010936;28;20199;-76
2022/01/28 09:49:07;;;;;;;15.10;3.83;;;6.40;99.90;;;;;;5008987;28;20222;-76
2022/01/28 09:51:34;;;;;;;10.27;2.97;;;6.50;99.90;;;;;;4991818;28;20215;-76
2022/01/28 09:54:03;;;;;;;11.10;3.50;;;6.60;99.90;;;;;;5010978;28;20566;-76
2022/01/28 09:56:30;;;;;;;14.00;3.87;;;6.50;99.90;;;;;;5012255;28;20676;-76
2022/01/28 09:58:59;;;;;;;8.87;3.07;;;6.50;99.90;;;;;;5009030;28;20254;-76
2022/01/28 10:01:28;;;;;;;9.80;3.03;;;6.70;99.90;;;;;;5009892;28;20574;-76
2022/01/28 10:04:04;;;;;;;18.03;3.97;;;6.70;99.90;;;;;;5011043;28;20207;-76
2022/01/28 10:06:32;;;;;;;15.07;3.50;;;6.80;99.90;;;;;;5010050;28;20684;-76
2022/01/28 10:09:46;;;;;;;14.03;3.70;;;6.90;99.90;;;;;;5007383;28;20237;-76
2022/01/28 10:12:18;;;;;;;14.63;4.17;;;7.20;99.90;;;;;;4995185;28;20557;-76
2022/01/28 10:15:01;;;;;;;12.10;3.53;;;7.10;99.90;;;;;;5011192;28;20206;-76
2022/01/28 10:17:51;;;;;;;12.83;4.10;;;7.10;99.90;;;;;;5010935;28;20883;-76
2022/01/28 10:20:19;;;;;;;12.67;3.17;;;7.10;99.90;;;;;;4999149;28;20224;-76
2022/01/28 10:22:51;;;;;;;12.60;3.50;;;7.20;99.90;;;;;;5006508;28;20211;-75
2022/01/28 10:25:26;;;;;;;15.63;3.37;;;7.40;99.90;;;;;;5012091;28;20199;-76
2022/01/28 10:27:58;;;;;;;10.97;2.83;;;7.40;99.90;;;;;;5010761;28;20637;-76
2022/01/28 10:30:46;;;;;;;10.30;2.97;;;7.60;99.90;;;;;;5008124;28;20215;-76
2022/01/28 10:33:16;;;;;;;10.97;2.90;;;7.60;99.90;;;;;;5008213;28;20200;-76
2022/01/28 10:35:52;;;;;;;15.77;3.13;;;7.60;99.90;;;;;;5010746;28;20207;-76
2022/01/28 10:38:29;;;;;;;11.10;3.60;;;7.40;99.90;;;;;;5009132;28;20238;-77
2022/01/28 10:41:08;;;;;;;12.63;2.80;;;7.40;99.90;;;;;;5000101;28;20214;-77
2022/01/28 10:43:42;;;;;;;12.90;3.07;;;7.60;99.90;;;;;;5007107;28;20627;-77
2022/01/28 10:46:09;;;;;;;13.27;3.30;;;7.60;99.90;;;;;;5012221;28;20211;-77
2022/01/28 10:48:54;;;;;;;14.43;3.30;;;7.60;99.90;;;;;;5022744;28;20223;-77
2022/01/28 10:51:23;;;;;;;10.20;3.37;;;7.50;99.90;;;;;;4997740;28;20192;-76
2022/01/28 10:54:05;;;;;;;13.63;3.30;;;7.50;99.50;;;;;;5002541;28;20203;-77
2022/01/28 10:56:49;;;;;;;10.77;3.00;;;7.50;99.70;;;;;;5013255;28;20226;-78
2022/01/28 10:59:26;;;;;;;13.93;3.00;;;7.70;99.70;;;;;;5011866;28;20650;-76
2022/01/28 11:01:54;;;;;;;13.93;3.47;;;7.60;99.70;;;;;;5008786;28;20198;-77
2022/01/28 11:04:23;;;;;;;10.30;3.00;;;7.50;99.90;;;;;;5015800;28;20211;-77
2022/01/28 11:06:53;;;;;;;11.57;2.77;;;7.50;99.90;;;;;;5006874;28;20199;-76
2022/01/28 11:09:22;;;;;;;11.07;2.50;;;7.50;99.90;;;;;;5012814;28;20218;-76
2022/01/28 11:11:51;;;;;;;10.03;3.30;;;7.50;99.70;;;;;;5015807;28;20202;-76
2022/01/28 11:14:20;;;;;;;10.33;3.00;;;7.40;98.90;;;;;;5016440;28;20210;-76
2022/01/28 11:16:53;;;;;;;8.80;2.27;;;7.40;99.20;;;;;;5011706;28;20238;-76
2022/01/28 11:19:24;;;;;;;9.30;3.23;;;7.40;99.50;;;;;;5006659;28;20714;-76
2022/01/28 11:22:11;;;;;;;13.07;2.77;;;7.40;99.90;;;;;;5011445;28;20195;-76
2022/01/28 11:25:03;;;;;;;14.60;3.13;;;7.40;99.90;;;;;;5019041;28;20218;-76
2022/01/28 11:27:32;;;;;;;7.90;2.53;;;7.50;99.90;;;;;;5012114;28;20606;-76
2022/01/28 11:30:17;;;;;;;13.83;3.77;;;7.50;99.90;;;;;;5010734;28;20227;-76
2022/01/28 11:33:02;;;;;;;12.43;2.90;;;7.40;99.90;;;;;;5004369;28;20212;-76
2022/01/28 11:35:35;;;;;;;10.90;3.23;;;7.30;99.90;;;;;;5013166;28;20199;-76
2022/01/28 11:38:23;;;;;;;13.60;3.13;;;7.20;99.90;;;;;;5004164;28;20226;-76
2022/01/28 11:40:53;;;;;;;13.67;3.40;;;7.20;99.90;;;;;;5001516;28;20208;-76
2022/01/28 11:43:22;;;;;;;15.60;3.27;;;7.10;99.90;;;;;;5014963;28;20648;-76
2022/01/28 11:46:06;;;;;;;11.33;3.27;;;7.20;99.90;;;;;;5000621;28;20214;-76
2022/01/28 11:49:16;;;;;;;8.03;2.87;;;7.40;99.90;;;;;;5011973;28;20208;-76
2022/01/28 11:51:44;;;;;;;12.23;3.33;;;7.30;99.90;;;;;;5014920;28;20206;-76
2022/01/28 11:54:13;;;;;;;12.03;3.53;;;7.30;99.90;;;;;;5000485;28;20200;-76
2022/01/28 11:57:14;;;;;;;12.97;3.20;;;7.10;99.50;;;;;;5035540;28;20207;-76
2022/01/28 11:59:41;;;;;;;16.00;3.37;;;7.20;99.60;;;;;;5014065;28;20223;-75
2022/01/28 12:02:11;;;;;;;13.33;3.30;;;7.20;99.90;;;;;;5003668;28;20204;-76
2022/01/28 12:04:44;;;;;;;14.53;3.63;;;7.30;99.90;;;;;;5005192;28;20199;-77
2022/01/28 12:07:58;;;;;;;12.50;3.13;;;7.30;99.90;;;;;;5012007;28;20203;-76
2022/01/28 12:10:27;;;;;;;10.70;2.73;;;7.40;99.90;;;;;;5008434;28;20211;-76
2022/01/28 12:13:00;;;;;;;13.53;2.90;;;7.50;99.90;;;;;;4993450;28;20223;-76
2022/01/28 12:15:29;;;;;;;9.47;2.87;;;7.50;99.90;;;;;;5001403;28;20687;-76
2022/01/28 12:18:25;;;;;;;13.43;3.30;;;7.80;99.60;;;;;;5014207;28;20231;-77
2022/01/28 12:20:53;;;;;;;13.20;3.47;;;8.00;98.60;;;;;;5007449;28;20204;-77
2022/01/28 12:23:38;;;;;;;9.90;3.07;;;8.00;98.40;;;;;;4999988;28;20191;-77
2022/01/28 12:26:07;;;;;;;9.40;2.70;;;8.10;97.70;;;;;;5012250;28;20204;-76
2022/01/28 12:28:50;;;;;;;11.27;2.80;;;8.00;97.60;;;;;;5013244;28;20219;-76
2022/01/28 12:31:30;;;;;;;11.00;2.97;;;8.30;97.80;;;;;;5008335;28;20191;-76
2022/01/28 12:34:04;;;;;;;10.10;3.00;;;8.30;97.70;;;;;;5012481;28;20205;-76
2022/01/28 12:36:34;;;;;;;11.23;3.40;;;8.20;98.30;;;;;;5011440;28;20197;-76
2022/01/28 12:39:12;;;;;;;11.70;3.80;;;8.60;98.70;;;;;;5008952;28;20223;-76
2022/01/28 12:41:52;;;;;;;10.23;3.63;;;9.10;97.50;;;;;;5010088;28;20203;-76
2022/01/28 12:44:21;;;;;;;12.07;3.10;;;10.10;96.00;;;;;;5011694;28;20196;-76
2022/01/28 12:46:57;;;;;;;14.20;3.00;;;10.80;94.60;;;;;;5009593;28;20189;-76
2022/01/28 12:49:26;;;;;;;10.73;4.13;;;11.40;91.70;;;;;;5005491;28;20223;-76
2022/01/28 12:52:32;;;;;;;13.13;3.40;;;10.40;90.60;;;;;;5005424;28;20200;-76
2022/01/28 12:54:59;;;;;;;11.40;3.00;;;10.30;91.40;;;;;;5006616;28;20191;-76
2022/01/28 12:57:26;;;;;;;13.43;3.03;;;9.50;93.40;;;;;;5007833;28;20681;-76
2022/01/28 12:59:55;;;;;;;13.60;3.80;;;10.50;93.10;;;;;;5008904;28;20220;-76
2022/01/28 13:02:23;;;;;;;10.33;2.90;;;11.70;91.40;;;;;;5007974;28;20203;-76
2022/01/28 13:04:59;;;;;;;11.90;2.87;;;11.60;87.20;;;;;;5011375;28;20195;-76
2022/01/28 13:10:23;;;;;;;11.03;3.23;;;11.60;89.30;;;;;;4958744;28;20226;-76
2022/01/28 13:12:52;;;;;;;10.03;3.43;;;10.60;88.80;;;;;;5008134;28;20192;-76
2022/01/28 13:15:21;;;;;;;11.17;2.90;;;10.10;90.90;;;;;;5013589;28;20194;-76
2022/01/28 13:17:57;;;;;;;8.37;2.60;;;9.60;91.60;;;;;;5010737;28;20220;-77
2022/01/28 13:20:31;;;;;;;13.77;2.80;;;10.90;91.60;;;;;;4998327;28;20220;-76
2022/01/28 13:22:59;;;;;;;9.20;2.57;;;10.00;90.80;;;;;;5010711;28;20199;-76
2022/01/28 13:25:28;;;;;;;12.57;3.10;;;9.30;92.20;;;;;;5007910;28;20203;-76
2022/01/28 13:27:59;;;;;;;13.40;3.70;;;9.00;93.80;;;;;;5006154;28;20218;-76
2022/01/28 13:30:34;;;;;;;12.40;2.77;;;10.60;92.40;;;;;;5001626;28;20219;-76
2022/01/28 13:33:09;;;;;;;17.27;2.53;;;10.60;90.80;;;;;;5007353;28;20192;-76
2022/01/28 13:35:42;;;;;;;10.77;3.53;;;10.70;92.00;;;;;;5009297;28;20203;-76
2022/01/28 13:38:20;;;;;;;6.87;2.43;;;10.30;91.80;;;;;;5008940;28;20207;-76
2022/01/28 13:40:49;;;;;;;11.93;3.50;;;9.50;92.00;;;;;;5005683;28;20374;-75
2022/01/28 13:43:18;;;;;;;13.83;3.47;;;9.20;93.80;;;;;;5016408;28;20196;-76
2022/01/28 13:45:51;;;;;;;11.90;2.87;;;9.80;93.50;;;;;;5017991;28;20207;-78
2022/01/28 13:48:21;;;;;;;12.03;3.23;;;10.50;91.20;;;;;;5008100;28;20191;-78
2022/01/28 13:50:54;;;;;;;13.03;3.17;;;10.20;92.30;;;;;;5010699;28;20195;-79
2022/01/28 13:54:09;;;;;;;10.97;3.87;;;10.20;92.40;;;;;;5026778;28;20200;-78
2022/01/28 13:56:22;;;;;;;10.07;3.43;;;11.20;90.40;;;;;;5011445;28;20682;-78
2022/01/28 13:58:53;;;;;;;11.53;3.23;;;10.80;90.70;;;;;;5012483;28;20215;-78
2022/01/28 14:01:27;;;;;;;12.10;3.63;;;11.10;90.00;;;;;;5006422;28;20210;-78
2022/01/28 14:03:56;;;;;;;12.80;3.37;;;10.70;90.40;;;;;;5012071;28;20195;-78
2022/01/28 14:06:25;;;;;;;13.87;3.47;;;10.90;91.10;;;;;;5012114;28;20569;-78